Terminal Aerodrome Forecast
Issued by NWS Sioux Falls, SD

Home | Current Version | Previous Version | Graphics & Text | Print | Product List | Glossary On
Versions: 1 2 3 4 5 6 7 8 9 10 11 12 13
971
FTUS43 KFSD 241720
TAFFSD
TAF
KFSD 241720Z 2418/2518 34010KT P6SM SCT120 SCT250
     FM241900 33009KT P6SM VCSH BKN120
      TEMPO 2420/2422 -TSRA BKN090CB
     FM242300 33008KT P6SM SCT100
     FM250200 VRB03KT P6SM SKC
     FM251600 19006KT P6SM SKC=

USA.gov is the U.S. government's official web portal to all federal, state and local government web resources and services.